sensor_id;sensor_type;location;lat;lon;timestamp;temperature;humidity
17092;DHT22;8661;45.700;4.880;2022-10-13T00:01:53;13.00;99.90
17092;DHT22;8661;45.700;4.880;2022-10-13T00:04:20;13.00;99.90
17092;DHT22;8661;45.700;4.880;2022-10-13T00:06:47;13.00;99.90
17092;DHT22;8661;45.700;4.880;2022-10-13T00:09:14;13.00;99.90
17092;DHT22;8661;45.700;4.880;2022-10-13T00:11:42;13.00;99.90
17092;DHT22;8661;45.700;4.880;2022-10-13T00:14:09;12.90;99.90
17092;DHT22;8661;45.700;4.880;2022-10-13T00:16:38;12.90;99.90
17092;DHT22;8661;45.700;4.880;2022-10-13T00:19:05;12.90;99.90
17092;DHT22;8661;45.700;4.880;2022-10-13T00:21:32;12.80;99.90
17092;DHT22;8661;45.700;4.880;2022-10-13T00:23:59;12.80;99.90
17092;DHT22;8661;45.700;4.880;2022-10-13T00:26:26;12.90;99.90
17092;DHT22;8661;45.700;4.880;2022-10-13T00:28:55;12.80;99.90
17092;DHT22;8661;45.700;4.880;2022-10-13T00:31:23;12.90;99.90
17092;DHT22;8661;45.700;4.880;2022-10-13T00:33:50;12.80;99.90
17092;DHT22;8661;45.700;4.880;2022-10-13T00:36:19;12.70;99.90
17092;DHT22;8661;45.700;4.880;2022-10-13T00:38:46;12.70;99.90
17092;DHT22;8661;45.700;4.880;2022-10-13T00:41:13;12.70;99.90
17092;DHT22;8661;45.700;4.880;2022-10-13T00:43:52;12.80;99.90
17092;DHT22;8661;45.700;4.880;2022-10-13T00:46:21;12.70;99.90
17092;DHT22;8661;45.700;4.880;2022-10-13T00:48:48;12.70;99.90
17092;DHT22;8661;45.700;4.880;2022-10-13T00:51:18;12.70;99.90
17092;DHT22;8661;45.700;4.880;2022-10-13T00:53:47;12.70;99.90
17092;DHT22;8661;45.700;4.880;2022-10-13T00:56:16;12.70;99.90
17092;DHT22;8661;45.700;4.880;2022-10-13T00:58:44;12.70;99.90
17092;DHT22;8661;45.700;4.880;2022-10-13T01:01:12;12.70;99.90
17092;DHT22;8661;45.700;4.880;2022-10-13T01:03:40;12.70;99.90
17092;DHT22;8661;45.700;4.880;2022-10-13T01:06:08;12.60;99.90
17092;DHT22;8661;45.700;4.880;2022-10-13T01:08:35;12.70;99.90
17092;DHT22;8661;45.700;4.880;2022-10-13T01:14:03;12.60;99.90
17092;DHT22;8661;45.700;4.880;2022-10-13T01:16:39;12.60;99.90
17092;DHT22;8661;45.700;4.880;2022-10-13T01:22:15;12.50;99.90
17092;DHT22;8661;45.700;4.880;2022-10-13T01:24:46;12.50;99.90
17092;DHT22;8661;45.700;4.880;2022-10-13T01:27:49;12.50;99.90
17092;DHT22;8661;45.700;4.880;2022-10-13T01:30:22;12.40;99.90
17092;DHT22;8661;45.700;4.880;2022-10-13T01:33:15;12.50;99.90
17092;DHT22;8661;45.700;4.880;2022-10-13T01:35:54;12.50;99.90
17092;DHT22;8661;45.700;4.880;2022-10-13T01:38:32;12.50;99.90
17092;DHT22;8661;45.700;4.880;2022-10-13T01:41:07;12.50;99.90
17092;DHT22;8661;45.700;4.880;2022-10-13T01:43:38;12.50;99.90
17092;DHT22;8661;45.700;4.880;2022-10-13T01:46:11;12.50;99.90
17092;DHT22;8661;45.700;4.880;2022-10-13T01:48:40;12.40;99.90
17092;DHT22;8661;45.700;4.880;2022-10-13T01:51:11;12.40;99.90
17092;DHT22;8661;45.700;4.880;2022-10-13T01:53:39;12.40;99.90
17092;DHT22;8661;45.700;4.880;2022-10-13T01:56:07;12.40;99.90
17092;DHT22;8661;45.700;4.880;2022-10-13T01:58:35;12.40;99.90
17092;DHT22;8661;45.700;4.880;2022-10-13T02:01:16;12.40;99.90
17092;DHT22;8661;45.700;4.880;2022-10-13T02:03:52;12.30;99.90
17092;DHT22;8661;45.700;4.880;2022-10-13T02:06:29;12.30;99.90
17092;DHT22;8661;45.700;4.880;2022-10-13T02:09:02;12.20;99.90
17092;DHT22;8661;45.700;4.880;2022-10-13T02:11:31;12.20;99.90
17092;DHT22;8661;45.700;4.880;2022-10-13T02:14:01;12.20;99.90
17092;DHT22;8661;45.700;4.880;2022-10-13T02:16:33;12.10;99.90
17092;DHT22;8661;45.700;4.880;2022-10-13T02:19:02;12.10;99.90
17092;DHT22;8661;45.700;4.880;2022-10-13T02:21:30;12.00;99.90
17092;DHT22;8661;45.700;4.880;2022-10-13T02:23:57;12.00;99.90
17092;DHT22;8661;45.700;4.880;2022-10-13T02:26:24;11.90;99.90
17092;DHT22;8661;45.700;4.880;2022-10-13T02:28:51;11.90;99.90
17092;DHT22;8661;45.700;4.880;2022-10-13T02:31:18;11.80;99.90
17092;DHT22;8661;45.700;4.880;2022-10-13T02:33:46;11.80;99.90
17092;DHT22;8661;45.700;4.880;2022-10-13T02:36:13;11.80;99.90
17092;DHT22;8661;45.700;4.880;2022-10-13T02:38:40;11.70;99.90
17092;DHT22;8661;45.700;4.880;2022-10-13T02:41:07;11.80;99.90
17092;DHT22;8661;45.700;4.880;2022-10-13T02:43:34;11.70;99.90
17092;DHT22;8661;45.700;4.880;2022-10-13T02:46:02;11.70;99.90
17092;DHT22;8661;45.700;4.880;2022-10-13T02:48:29;11.70;99.90
17092;DHT22;8661;45.700;4.880;2022-10-13T02:50:57;11.70;99.90
17092;DHT22;8661;45.700;4.880;2022-10-13T02:53:24;11.70;99.90
17092;DHT22;8661;45.700;4.880;2022-10-13T02:55:51;11.70;99.90
17092;DHT22;8661;45.700;4.880;2022-10-13T02:58:18;11.70;99.90
17092;DHT22;8661;45.700;4.880;2022-10-13T03:00:45;11.70;99.90
17092;DHT22;8661;45.700;4.880;2022-10-13T03:03:12;11.70;99.90
17092;DHT22;8661;45.700;4.880;2022-10-13T03:05:38;11.70;99.90
17092;DHT22;8661;45.700;4.880;2022-10-13T03:08:07;11.70;99.90
17092;DHT22;8661;45.700;4.880;2022-10-13T03:10:33;11.70;99.90
17092;DHT22;8661;45.700;4.880;2022-10-13T03:13:00;11.70;99.90
17092;DHT22;8661;45.700;4.880;2022-10-13T03:15:27;11.70;99.90
17092;DHT22;8661;45.700;4.880;2022-10-13T03:17:54;11.80;99.90
17092;DHT22;8661;45.700;4.880;2022-10-13T03:20:21;11.90;99.90
17092;DHT22;8661;45.700;4.880;2022-10-13T03:22:48;11.90;99.90
17092;DHT22;8661;45.700;4.880;2022-10-13T03:25:16;11.90;99.90
17092;DHT22;8661;45.700;4.880;2022-10-13T03:27:43;11.90;99.90
17092;DHT22;8661;45.700;4.880;2022-10-13T03:30:11;12.00;99.90
17092;DHT22;8661;45.700;4.880;2022-10-13T03:32:38;12.00;99.90
17092;DHT22;8661;45.700;4.880;2022-10-13T03:35:05;12.00;99.90
17092;DHT22;8661;45.700;4.880;2022-10-13T03:37:32;12.10;99.90
17092;DHT22;8661;45.700;4.880;2022-10-13T03:39:59;12.10;99.90
17092;DHT22;8661;45.700;4.880;2022-10-13T03:42:27;12.20;99.90
17092;DHT22;8661;45.700;4.880;2022-10-13T03:44:54;12.30;99.90
17092;DHT22;8661;45.700;4.880;2022-10-13T03:47:21;12.30;99.90
17092;DHT22;8661;45.700;4.880;2022-10-13T03:49:48;12.40;99.90
17092;DHT22;8661;45.700;4.880;2022-10-13T03:52:15;12.40;99.90
17092;DHT22;8661;45.700;4.880;2022-10-13T03:54:42;12.40;99.90
17092;DHT22;8661;45.700;4.880;2022-10-13T03:57:08;12.50;99.90
17092;DHT22;8661;45.700;4.880;2022-10-13T03:59:38;12.60;99.90
17092;DHT22;8661;45.700;4.880;2022-10-13T04:02:05;12.60;99.90
17092;DHT22;8661;45.700;4.880;2022-10-13T04:04:32;12.60;99.90
17092;DHT22;8661;45.700;4.880;2022-10-13T04:06:59;12.70;99.90
17092;DHT22;8661;45.700;4.880;2022-10-13T04:09:26;12.70;99.90
17092;DHT22;8661;45.700;4.880;2022-10-13T04:11:53;12.70;99.90
17092;DHT22;8661;45.700;4.880;2022-10-13T04:14:23;12.70;99.90
17092;DHT22;8661;45.700;4.880;2022-10-13T04:16:51;12.70;99.90
17092;DHT22;8661;45.700;4.880;2022-10-13T04:19:18;12.70;99.90
17092;DHT22;8661;45.700;4.880;2022-10-13T04:21:44;12.70;99.90
17092;DHT22;8661;45.700;4.880;2022-10-13T04:24:15;12.70;99.90
17092;DHT22;8661;45.700;4.880;2022-10-13T04:26:43;12.70;99.90
17092;DHT22;8661;45.700;4.880;2022-10-13T04:29:11;12.70;99.90
17092;DHT22;8661;45.700;4.880;2022-10-13T04:31:39;12.80;99.90
17092;DHT22;8661;45.700;4.880;2022-10-13T04:34:09;12.80;99.90
17092;DHT22;8661;45.700;4.880;2022-10-13T04:36:36;12.80;99.90
17092;DHT22;8661;45.700;4.880;2022-10-13T04:39:04;12.80;99.90
17092;DHT22;8661;45.700;4.880;2022-10-13T04:41:31;12.80;99.90
17092;DHT22;8661;45.700;4.880;2022-10-13T04:43:58;12.80;99.90
17092;DHT22;8661;45.700;4.880;2022-10-13T04:46:27;12.80;99.90
17092;DHT22;8661;45.700;4.880;2022-10-13T04:48:54;12.80;99.90
17092;DHT22;8661;45.700;4.880;2022-10-13T04:51:24;12.80;99.90
17092;DHT22;8661;45.700;4.880;2022-10-13T04:53:53;12.80;99.90
17092;DHT22;8661;45.700;4.880;2022-10-13T04:56:20;12.80;99.90
17092;DHT22;8661;45.700;4.880;2022-10-13T04:58:47;12.80;99.90
17092;DHT22;8661;45.700;4.880;2022-10-13T05:01:16;12.90;99.90
17092;DHT22;8661;45.700;4.880;2022-10-13T05:03:44;12.90;99.90
17092;DHT22;8661;45.700;4.880;2022-10-13T05:06:15;12.90;99.90
17092;DHT22;8661;45.700;4.880;2022-10-13T05:08:43;12.90;99.90
17092;DHT22;8661;45.700;4.880;2022-10-13T05:11:10;12.90;99.90
17092;DHT22;8661;45.700;4.880;2022-10-13T05:13:37;12.90;99.90
17092;DHT22;8661;45.700;4.880;2022-10-13T05:16:06;12.90;99.90
17092;DHT22;8661;45.700;4.880;2022-10-13T05:18:34;12.90;99.90
17092;DHT22;8661;45.700;4.880;2022-10-13T05:21:07;12.90;99.90
17092;DHT22;8661;45.700;4.880;2022-10-13T05:23:34;12.80;99.90
17092;DHT22;8661;45.700;4.880;2022-10-13T05:26:05;12.80;99.90
17092;DHT22;8661;45.700;4.880;2022-10-13T05:28:32;12.90;99.90
17092;DHT22;8661;45.700;4.880;2022-10-13T05:31:08;13.00;99.90
17092;DHT22;8661;45.700;4.880;2022-10-13T05:33:36;13.00;99.90
17092;DHT22;8661;45.700;4.880;2022-10-13T05:36:04;13.00;99.90
17092;DHT22;8661;45.700;4.880;2022-10-13T05:38:32;13.00;99.90
17092;DHT22;8661;45.700;4.880;2022-10-13T05:41:03;13.10;99.90
17092;DHT22;8661;45.700;4.880;2022-10-13T05:43:30;13.00;99.90
17092;DHT22;8661;45.700;4.880;2022-10-13T05:45:57;13.00;99.90
17092;DHT22;8661;45.700;4.880;2022-10-13T05:48:26;13.10;99.90
17092;DHT22;8661;45.700;4.880;2022-10-13T05:50:54;13.10;99.90
17092;DHT22;8661;45.700;4.880;2022-10-13T05:53:23;13.10;99.90
17092;DHT22;8661;45.700;4.880;2022-10-13T05:55:51;13.10;99.90
17092;DHT22;8661;45.700;4.880;2022-10-13T05:58:21;13.10;99.90
17092;DHT22;8661;45.700;4.880;2022-10-13T06:00:48;13.10;99.90
17092;DHT22;8661;45.700;4.880;2022-10-13T06:03:19;13.10;99.90
17092;DHT22;8661;45.700;4.880;2022-10-13T06:05:47;13.00;99.90
17092;DHT22;8661;45.700;4.880;2022-10-13T06:08:14;13.00;99.90
17092;DHT22;8661;45.700;4.880;2022-10-13T06:10:42;13.00;99.90
17092;DHT22;8661;45.700;4.880;2022-10-13T06:13:10;13.10;99.90
17092;DHT22;8661;45.700;4.880;2022-10-13T06:15:41;13.10;99.90
17092;DHT22;8661;45.700;4.880;2022-10-13T06:18:08;13.10;99.90
17092;DHT22;8661;45.700;4.880;2022-10-13T06:20:36;13.20;99.90
17092;DHT22;8661;45.700;4.880;2022-10-13T06:23:03;13.20;99.90
17092;DHT22;8661;45.700;4.880;2022-10-13T06:25:31;13.20;99.90
17092;DHT22;8661;45.700;4.880;2022-10-13T06:27:59;13.20;99.90
17092;DHT22;8661;45.700;4.880;2022-10-13T06:30:27;13.20;99.90
17092;DHT22;8661;45.700;4.880;2022-10-13T06:32:56;13.20;99.90
17092;DHT22;8661;45.700;4.880;2022-10-13T06:35:23;13.30;99.90
17092;DHT22;8661;45.700;4.880;2022-10-13T06:37:50;13.40;99.90
17092;DHT22;8661;45.700;4.880;2022-10-13T06:40:17;13.40;99.90
17092;DHT22;8661;45.700;4.880;2022-10-13T06:42:48;13.40;99.90
17092;DHT22;8661;45.700;4.880;2022-10-13T06:45:16;13.30;99.90
17092;DHT22;8661;45.700;4.880;2022-10-13T06:47:43;13.40;99.90
17092;DHT22;8661;45.700;4.880;2022-10-13T06:50:12;13.50;99.90
17092;DHT22;8661;45.700;4.880;2022-10-13T06:52:39;13.50;99.90
17092;DHT22;8661;45.700;4.880;2022-10-13T06:55:08;13.50;99.90
17092;DHT22;8661;45.700;4.880;2022-10-13T06:57:35;13.60;99.90
17092;DHT22;8661;45.700;4.880;2022-10-13T07:00:02;13.60;99.90
17092;DHT22;8661;45.700;4.880;2022-10-13T07:02:29;13.60;99.90
17092;DHT22;8661;45.700;4.880;2022-10-13T07:04:55;13.60;99.90
17092;DHT22;8661;45.700;4.880;2022-10-13T07:07:24;13.60;99.90
17092;DHT22;8661;45.700;4.880;2022-10-13T07:09:51;13.60;99.90
17092;DHT22;8661;45.700;4.880;2022-10-13T07:12:17;13.60;99.90
17092;DHT22;8661;45.700;4.880;2022-10-13T07:14:45;13.60;99.90
17092;DHT22;8661;45.700;4.880;2022-10-13T07:17:12;13.70;99.90
17092;DHT22;8661;45.700;4.880;2022-10-13T07:19:39;13.80;99.90
17092;DHT22;8661;45.700;4.880;2022-10-13T07:22:06;13.90;99.90
17092;DHT22;8661;45.700;4.880;2022-10-13T07:24:34;14.00;99.90
17092;DHT22;8661;45.700;4.880;2022-10-13T07:27:01;14.00;99.90
17092;DHT22;8661;45.700;4.880;2022-10-13T07:29:28;13.90;99.90
17092;DHT22;8661;45.700;4.880;2022-10-13T07:31:55;13.90;99.90
17092;DHT22;8661;45.700;4.880;2022-10-13T07:34:22;14.00;99.90
17092;DHT22;8661;45.700;4.880;2022-10-13T07:36:48;14.00;99.90
17092;DHT22;8661;45.700;4.880;2022-10-13T07:39:15;14.10;99.90
17092;DHT22;8661;45.700;4.880;2022-10-13T07:41:43;14.00;99.90
17092;DHT22;8661;45.700;4.880;2022-10-13T07:44:10;14.00;99.90
17092;DHT22;8661;45.700;4.880;2022-10-13T07:46:37;14.10;99.90
17092;DHT22;8661;45.700;4.880;2022-10-13T07:49:04;14.20;99.90
17092;DHT22;8661;45.700;4.880;2022-10-13T07:51:31;14.40;99.90
17092;DHT22;8661;45.700;4.880;2022-10-13T07:53:58;14.50;99.90
17092;DHT22;8661;45.700;4.880;2022-10-13T07:56:25;14.50;99.90
17092;DHT22;8661;45.700;4.880;2022-10-13T07:58:53;14.50;99.90
17092;DHT22;8661;45.700;4.880;2022-10-13T08:01:20;14.50;99.90
17092;DHT22;8661;45.700;4.880;2022-10-13T08:03:47;14.50;99.90
17092;DHT22;8661;45.700;4.880;2022-10-13T08:06:13;14.70;99.90
17092;DHT22;8661;45.700;4.880;2022-10-13T08:08:40;14.70;99.90
17092;DHT22;8661;45.700;4.880;2022-10-13T08:11:11;14.70;99.90
17092;DHT22;8661;45.700;4.880;2022-10-13T08:13:38;14.70;99.90
17092;DHT22;8661;45.700;4.880;2022-10-13T08:16:06;14.80;99.90
17092;DHT22;8661;45.700;4.880;2022-10-13T08:18:33;14.80;99.90
17092;DHT22;8661;45.700;4.880;2022-10-13T08:21:01;15.00;99.90
17092;DHT22;8661;45.700;4.880;2022-10-13T08:23:29;14.90;99.90
17092;DHT22;8661;45.700;4.880;2022-10-13T08:25:56;14.90;99.90
17092;DHT22;8661;45.700;4.880;2022-10-13T08:28:25;15.10;99.90
17092;DHT22;8661;45.700;4.880;2022-10-13T08:30:52;15.20;99.90
17092;DHT22;8661;45.700;4.880;2022-10-13T08:33:21;15.20;99.90
17092;DHT22;8661;45.700;4.880;2022-10-13T08:35:48;15.30;99.90
17092;DHT22;8661;45.700;4.880;2022-10-13T08:38:15;15.40;99.90
17092;DHT22;8661;45.700;4.880;2022-10-13T08:40:45;15.40;99.90
17092;DHT22;8661;45.700;4.880;2022-10-13T08:43:15;15.50;99.90
17092;DHT22;8661;45.700;4.880;2022-10-13T08:45:44;15.60;99.90
17092;DHT22;8661;45.700;4.880;2022-10-13T08:48:14;15.70;99.90
17092;DHT22;8661;45.700;4.880;2022-10-13T08:50:46;15.60;99.90
17092;DHT22;8661;45.700;4.880;2022-10-13T08:53:20;15.60;99.90
17092;DHT22;8661;45.700;4.880;2022-10-13T08:55:50;15.60;99.90
17092;DHT22;8661;45.700;4.880;2022-10-13T08:58:22;15.80;99.90
17092;DHT22;8661;45.700;4.880;2022-10-13T09:00:52;16.00;99.90
17092;DHT22;8661;45.700;4.880;2022-10-13T09:03:26;16.10;99.90
17092;DHT22;8661;45.700;4.880;2022-10-13T09:06:09;16.20;99.90
17092;DHT22;8661;45.700;4.880;2022-10-13T09:08:40;16.20;99.90
17092;DHT22;8661;45.700;4.880;2022-10-13T09:11:10;16.30;99.90
17092;DHT22;8661;45.700;4.880;2022-10-13T09:13:37;16.40;99.90
17092;DHT22;8661;45.700;4.880;2022-10-13T09:16:05;16.40;99.90
17092;DHT22;8661;45.700;4.880;2022-10-13T09:18:33;16.50;99.90
17092;DHT22;8661;45.700;4.880;2022-10-13T09:21:17;16.50;99.90
17092;DHT22;8661;45.700;4.880;2022-10-13T09:23:44;16.50;99.90
17092;DHT22;8661;45.700;4.880;2022-10-13T09:26:21;16.60;99.90
17092;DHT22;8661;45.700;4.880;2022-10-13T09:28:48;16.60;99.90
17092;DHT22;8661;45.700;4.880;2022-10-13T09:31:22;16.60;99.90
17092;DHT22;8661;45.700;4.880;2022-10-13T09:33:57;16.70;99.90
17092;DHT22;8661;45.700;4.880;2022-10-13T09:36:26;16.80;99.90
17092;DHT22;8661;45.700;4.880;2022-10-13T09:39:09;17.00;99.90
17092;DHT22;8661;45.700;4.880;2022-10-13T09:41:38;17.00;99.90
17092;DHT22;8661;45.700;4.880;2022-10-13T09:44:13;17.30;99.90
17092;DHT22;8661;45.700;4.880;2022-10-13T09:46:47;17.60;99.90
17092;DHT22;8661;45.700;4.880;2022-10-13T09:49:31;18.00;99.90
17092;DHT22;8661;45.700;4.880;2022-10-13T09:52:03;18.20;99.90
17092;DHT22;8661;45.700;4.880;2022-10-13T09:54:42;18.20;99.90
17092;DHT22;8661;45.700;4.880;2022-10-13T09:57:16;18.10;99.90
17092;DHT22;8661;45.700;4.880;2022-10-13T09:59:47;18.00;99.90
17092;DHT22;8661;45.700;4.880;2022-10-13T10:02:22;17.90;99.90
17092;DHT22;8661;45.700;4.880;2022-10-13T10:04:51;18.00;99.90
17092;DHT22;8661;45.700;4.880;2022-10-13T10:07:24;18.10;99.90
17092;DHT22;8661;45.700;4.880;2022-10-13T10:09:53;18.00;99.90
17092;DHT22;8661;45.700;4.880;2022-10-13T10:12:26;18.10;99.90
17092;DHT22;8661;45.700;4.880;2022-10-13T10:14:54;18.70;99.90
17092;DHT22;8661;45.700;4.880;2022-10-13T10:17:28;19.80;99.90
17092;DHT22;8661;45.700;4.880;2022-10-13T10:20:11;21.50;99.90
17092;DHT22;8661;45.700;4.880;2022-10-13T10:22:48;22.50;99.90
17092;DHT22;8661;45.700;4.880;2022-10-13T10:25:28;23.00;99.90
17092;DHT22;8661;45.700;4.880;2022-10-13T10:28:26;23.30;99.90
17092;DHT22;8661;45.700;4.880;2022-10-13T10:31:00;22.90;99.90
17092;DHT22;8661;45.700;4.880;2022-10-13T10:33:37;23.10;99.90
17092;DHT22;8661;45.700;4.880;2022-10-13T10:36:10;22.90;99.90
17092;DHT22;8661;45.700;4.880;2022-10-13T10:38:46;22.80;99.90
17092;DHT22;8661;45.700;4.880;2022-10-13T10:41:28;22.80;99.90
17092;DHT22;8661;45.700;4.880;2022-10-13T10:43:59;22.80;99.90
17092;DHT22;8661;45.700;4.880;2022-10-13T10:46:29;22.50;99.90
17092;DHT22;8661;45.700;4.880;2022-10-13T10:49:00;22.50;99.90
17092;DHT22;8661;45.700;4.880;2022-10-13T10:51:31;22.70;99.90
17092;DHT22;8661;45.700;4.880;2022-10-13T10:54:13;22.90;99.90
17092;DHT22;8661;45.700;4.880;2022-10-13T10:56:48;22.90;99.90
17092;DHT22;8661;45.700;4.880;2022-10-13T10:59:26;23.10;99.90
17092;DHT22;8661;45.700;4.880;2022-10-13T11:02:05;22.80;99.90
17092;DHT22;8661;45.700;4.880;2022-10-13T11:04:39;22.60;99.90
17092;DHT22;8661;45.700;4.880;2022-10-13T11:07:12;22.50;99.90
17092;DHT22;8661;45.700;4.880;2022-10-13T11:10:03;22.60;99.90
17092;DHT22;8661;45.700;4.880;2022-10-13T11:15:28;23.00;99.90
17092;DHT22;8661;45.700;4.880;2022-10-13T11:17:58;22.80;99.90
17092;DHT22;8661;45.700;4.880;2022-10-13T11:20:47;22.70;99.90
17092;DHT22;8661;45.700;4.880;2022-10-13T11:23:32;22.50;99.90
17092;DHT22;8661;45.700;4.880;2022-10-13T11:26:30;22.30;99.90
17092;DHT22;8661;45.700;4.880;2022-10-13T11:28:58;22.30;99.90
17092;DHT22;8661;45.700;4.880;2022-10-13T11:31:34;22.10;99.90
17092;DHT22;8661;45.700;4.880;2022-10-13T11:34:28;22.00;99.90
17092;DHT22;8661;45.700;4.880;2022-10-13T11:36:57;22.10;99.90
17092;DHT22;8661;45.700;4.880;2022-10-13T11:43:04;22.10;99.90
17092;DHT22;8661;45.700;4.880;2022-10-13T11:54:31;22.00;99.90
17092;DHT22;8661;45.700;4.880;2022-10-13T11:56:59;22.00;99.90
17092;DHT22;8661;45.700;4.880;2022-10-13T11:59:28;22.00;99.90
17092;DHT22;8661;45.700;4.880;2022-10-13T12:01:58;22.00;99.90
17092;DHT22;8661;45.700;4.880;2022-10-13T12:04:27;22.20;99.90
17092;DHT22;8661;45.700;4.880;2022-10-13T12:07:00;22.30;99.90
17092;DHT22;8661;45.700;4.880;2022-10-13T12:09:29;22.50;99.90
17092;DHT22;8661;45.700;4.880;2022-10-13T12:12:02;22.40;99.90
17092;DHT22;8661;45.700;4.880;2022-10-13T12:14:37;22.40;99.90
17092;DHT22;8661;45.700;4.880;2022-10-13T12:17:18;22.30;99.90
17092;DHT22;8661;45.700;4.880;2022-10-13T12:19:46;22.20;99.90
17092;DHT22;8661;45.700;4.880;2022-10-13T12:22:14;22.00;99.90
17092;DHT22;8661;45.700;4.880;2022-10-13T12:24:41;21.60;99.90
17092;DHT22;8661;45.700;4.880;2022-10-13T12:27:17;21.60;99.90
17092;DHT22;8661;45.700;4.880;2022-10-13T12:29:47;21.60;99.90
17092;DHT22;8661;45.700;4.880;2022-10-13T12:32:18;21.60;99.90
17092;DHT22;8661;45.700;4.880;2022-10-13T12:34:46;21.70;99.90
17092;DHT22;8661;45.700;4.880;2022-10-13T12:37:22;21.80;99.90
17092;DHT22;8661;45.700;4.880;2022-10-13T12:39:51;21.70;99.90
17092;DHT22;8661;45.700;4.880;2022-10-13T12:42:18;21.60;99.90
17092;DHT22;8661;45.700;4.880;2022-10-13T12:44:46;21.30;99.90
17092;DHT22;8661;45.700;4.880;2022-10-13T12:47:36;21.40;99.90
17092;DHT22;8661;45.700;4.880;2022-10-13T12:50:21;21.70;99.90
17092;DHT22;8661;45.700;4.880;2022-10-13T12:52:49;21.80;99.90
17092;DHT22;8661;45.700;4.880;2022-10-13T12:55:18;22.00;99.90
17092;DHT22;8661;45.700;4.880;2022-10-13T12:57:48;22.00;99.90
17092;DHT22;8661;45.700;4.880;2022-10-13T13:00:23;21.80;99.90
17092;DHT22;8661;45.700;4.880;2022-10-13T13:02:53;21.80;99.90
17092;DHT22;8661;45.700;4.880;2022-10-13T13:05:31;21.70;99.90
17092;DHT22;8661;45.700;4.880;2022-10-13T13:07:59;21.50;99.90
17092;DHT22;8661;45.700;4.880;2022-10-13T13:10:26;21.50;99.90
17092;DHT22;8661;45.700;4.880;2022-10-13T13:12:54;21.40;99.90
17092;DHT22;8661;45.700;4.880;2022-10-13T13:15:34;21.30;99.90
17092;DHT22;8661;45.700;4.880;2022-10-13T13:18:21;21.40;99.90
17092;DHT22;8661;45.700;4.880;2022-10-13T13:20:48;21.30;99.90
17092;DHT22;8661;45.700;4.880;2022-10-13T13:23:15;21.20;99.90
17092;DHT22;8661;45.700;4.880;2022-10-13T13:25:43;21.40;99.90
17092;DHT22;8661;45.700;4.880;2022-10-13T13:28:12;21.30;99.90
17092;DHT22;8661;45.700;4.880;2022-10-13T13:30:41;21.40;99.90
17092;DHT22;8661;45.700;4.880;2022-10-13T13:33:08;21.40;99.90
17092;DHT22;8661;45.700;4.880;2022-10-13T13:35:36;21.50;99.90
17092;DHT22;8661;45.700;4.880;2022-10-13T13:38:03;21.30;99.90
17092;DHT22;8661;45.700;4.880;2022-10-13T13:40:30;21.40;99.90
17092;DHT22;8661;45.700;4.880;2022-10-13T13:42:57;21.40;99.90
17092;DHT22;8661;45.700;4.880;2022-10-13T13:45:24;21.40;99.90
17092;DHT22;8661;45.700;4.880;2022-10-13T13:47:53;21.40;99.90
17092;DHT22;8661;45.700;4.880;2022-10-13T13:50:22;21.40;99.90
17092;DHT22;8661;45.700;4.880;2022-10-13T13:52:49;21.20;99.90
17092;DHT22;8661;45.700;4.880;2022-10-13T13:55:16;21.20;99.90
17092;DHT22;8661;45.700;4.880;2022-10-13T13:57:44;21.20;99.90
17092;DHT22;8661;45.700;4.880;2022-10-13T14:00:12;21.20;99.90
17092;DHT22;8661;45.700;4.880;2022-10-13T14:02:40;21.20;99.90
17092;DHT22;8661;45.700;4.880;2022-10-13T14:05:09;21.10;99.90
17092;DHT22;8661;45.700;4.880;2022-10-13T14:07:37;21.10;99.90
17092;DHT22;8661;45.700;4.880;2022-10-13T14:10:04;21.10;99.90
17092;DHT22;8661;45.700;4.880;2022-10-13T14:12:32;21.20;99.90
17092;DHT22;8661;45.700;4.880;2022-10-13T14:14:59;21.20;99.90
17092;DHT22;8661;45.700;4.880;2022-10-13T14:17:26;21.30;99.90
17092;DHT22;8661;45.700;4.880;2022-10-13T14:19:53;21.40;99.90
17092;DHT22;8661;45.700;4.880;2022-10-13T14:22:22;21.40;99.90
17092;DHT22;8661;45.700;4.880;2022-10-13T14:24:48;21.50;99.90
17092;DHT22;8661;45.700;4.880;2022-10-13T14:27:15;21.60;99.90
17092;DHT22;8661;45.700;4.880;2022-10-13T14:29:42;21.70;99.90
17092;DHT22;8661;45.700;4.880;2022-10-13T14:32:09;21.70;99.90
17092;DHT22;8661;45.700;4.880;2022-10-13T14:34:36;21.70;99.90
17092;DHT22;8661;45.700;4.880;2022-10-13T14:37:03;21.70;99.90
17092;DHT22;8661;45.700;4.880;2022-10-13T14:39:32;21.70;99.90
17092;DHT22;8661;45.700;4.880;2022-10-13T14:41:59;21.70;99.90
17092;DHT22;8661;45.700;4.880;2022-10-13T14:44:26;21.80;99.90
17092;DHT22;8661;45.700;4.880;2022-10-13T14:46:53;21.80;99.90
17092;DHT22;8661;45.700;4.880;2022-10-13T14:49:19;21.80;99.90
17092;DHT22;8661;45.700;4.880;2022-10-13T14:51:46;21.70;99.90
17092;DHT22;8661;45.700;4.880;2022-10-13T14:54:16;21.60;99.90
17092;DHT22;8661;45.700;4.880;2022-10-13T14:56:45;21.60;99.90
17092;DHT22;8661;45.700;4.880;2022-10-13T14:59:12;21.40;99.90
17092;DHT22;8661;45.700;4.880;2022-10-13T15:01:39;21.40;99.90
17092;DHT22;8661;45.700;4.880;2022-10-13T15:04:07;21.30;99.90
17092;DHT22;8661;45.700;4.880;2022-10-13T15:06:34;21.10;99.90
17092;DHT22;8661;45.700;4.880;2022-10-13T15:09:02;21.00;99.90
17092;DHT22;8661;45.700;4.880;2022-10-13T15:11:29;20.90;99.90
17092;DHT22;8661;45.700;4.880;2022-10-13T15:13:57;20.80;99.90
17092;DHT22;8661;45.700;4.880;2022-10-13T15:16:25;20.70;99.90
17092;DHT22;8661;45.700;4.880;2022-10-13T15:18:53;20.60;99.90
17092;DHT22;8661;45.700;4.880;2022-10-13T15:21:20;20.50;99.90
17092;DHT22;8661;45.700;4.880;2022-10-13T15:23:48;20.40;99.90
17092;DHT22;8661;45.700;4.880;2022-10-13T15:26:16;20.30;99.90
17092;DHT22;8661;45.700;4.880;2022-10-13T15:28:44;20.20;99.90
17092;DHT22;8661;45.700;4.880;2022-10-13T15:31:14;20.00;99.90
17092;DHT22;8661;45.700;4.880;2022-10-13T15:33:41;19.80;99.90
17092;DHT22;8661;45.700;4.880;2022-10-13T15:36:09;19.60;99.90
17092;DHT22;8661;45.700;4.880;2022-10-13T15:38:36;19.50;99.90
17092;DHT22;8661;45.700;4.880;2022-10-13T15:41:04;19.40;99.90
17092;DHT22;8661;45.700;4.880;2022-10-13T15:43:31;19.20;99.90
17092;DHT22;8661;45.700;4.880;2022-10-13T15:46:00;19.10;99.90
17092;DHT22;8661;45.700;4.880;2022-10-13T15:48:30;19.00;99.90
17092;DHT22;8661;45.700;4.880;2022-10-13T15:50:57;18.90;99.90
17092;DHT22;8661;45.700;4.880;2022-10-13T15:53:24;18.80;99.90
17092;DHT22;8661;45.700;4.880;2022-10-13T15:55:51;18.80;99.90
17092;DHT22;8661;45.700;4.880;2022-10-13T15:58:19;18.70;99.90
17092;DHT22;8661;45.700;4.880;2022-10-13T16:00:46;18.60;99.90
17092;DHT22;8661;45.700;4.880;2022-10-13T16:03:15;18.50;99.90
17092;DHT22;8661;45.700;4.880;2022-10-13T16:05:44;18.50;99.90
17092;DHT22;8661;45.700;4.880;2022-10-13T16:08:12;18.40;99.90
17092;DHT22;8661;45.700;4.880;2022-10-13T16:10:40;18.30;99.90
17092;DHT22;8661;45.700;4.880;2022-10-13T16:13:07;18.30;99.90
17092;DHT22;8661;45.700;4.880;2022-10-13T16:15:34;18.30;99.90
17092;DHT22;8661;45.700;4.880;2022-10-13T16:18:01;18.30;99.90
17092;DHT22;8661;45.700;4.880;2022-10-13T16:20:28;18.30;99.90
17092;DHT22;8661;45.700;4.880;2022-10-13T16:23:00;18.30;99.90